sensor_id;sensor_type;location;lat;lon;timestamp;P1;durP1;ratioP1;P2;durP2;ratioP2
23642;SDS011;11998;55.788;37.572;2023-06-04T00:00:03;7.27;;;2.00;;
23642;SDS011;11998;55.788;37.572;2023-06-04T00:01:05;3.07;;;1.90;;
23642;SDS011;11998;55.788;37.572;2023-06-04T00:02:05;3.03;;;2.30;;
23642;SDS011;11998;55.788;37.572;2023-06-04T00:03:06;3.87;;;2.00;;
23642;SDS011;11998;55.788;37.572;2023-06-04T00:04:07;6.67;;;1.87;;
23642;SDS011;11998;55.788;37.572;2023-06-04T00:05:07;1.83;;;1.63;;
23642;SDS011;11998;55.788;37.572;2023-06-04T00:06:08;3.23;;;2.03;;
23642;SDS011;11998;55.788;37.572;2023-06-04T00:07:09;6.67;;;2.50;;
23642;SDS011;11998;55.788;37.572;2023-06-04T00:08:09;6.03;;;2.30;;
23642;SDS011;11998;55.788;37.572;2023-06-04T00:09:10;3.80;;;2.00;;
23642;SDS011;11998;55.788;37.572;2023-06-04T00:10:10;3.40;;;1.93;;
23642;SDS011;11998;55.788;37.572;2023-06-04T00:11:11;3.37;;;2.07;;
23642;SDS011;11998;55.788;37.572;2023-06-04T00:12:11;3.77;;;2.40;;
23642;SDS011;11998;55.788;37.572;2023-06-04T00:13:12;6.47;;;2.30;;
23642;SDS011;11998;55.788;37.572;2023-06-04T00:14:13;6.20;;;3.10;;
23642;SDS011;11998;55.788;37.572;2023-06-04T00:15:15;2.87;;;1.80;;
23642;SDS011;11998;55.788;37.572;2023-06-04T00:16:16;3.30;;;1.97;;
23642;SDS011;11998;55.788;37.572;2023-06-04T00:17:17;5.87;;;2.10;;
23642;SDS011;11998;55.788;37.572;2023-06-04T00:18:17;3.67;;;2.13;;
23642;SDS011;11998;55.788;37.572;2023-06-04T00:19:18;4.10;;;2.37;;
23642;SDS011;11998;55.788;37.572;2023-06-04T00:20:18;3.30;;;2.17;;
23642;SDS011;11998;55.788;37.572;2023-06-04T00:21:19;3.47;;;1.80;;
23642;SDS011;11998;55.788;37.572;2023-06-04T00:22:20;5.13;;;1.90;;
23642;SDS011;11998;55.788;37.572;2023-06-04T00:23:20;2.53;;;2.10;;
23642;SDS011;11998;55.788;37.572;2023-06-04T00:24:21;2.63;;;2.00;;
23642;SDS011;11998;55.788;37.572;2023-06-04T00:25:22;2.80;;;1.80;;
23642;SDS011;11998;55.788;37.572;2023-06-04T00:26:22;3.87;;;2.20;;
23642;SDS011;11998;55.788;37.572;2023-06-04T00:27:23;4.27;;;1.83;;
23642;SDS011;11998;55.788;37.572;2023-06-04T00:28:23;3.53;;;1.80;;
23642;SDS011;11998;55.788;37.572;2023-06-04T00:29:25;3.30;;;2.10;;
23642;SDS011;11998;55.788;37.572;2023-06-04T00:30:25;6.33;;;2.00;;
23642;SDS011;11998;55.788;37.572;2023-06-04T00:31:26;5.27;;;2.30;;
23642;SDS011;11998;55.788;37.572;2023-06-04T00:32:26;3.90;;;2.23;;
23642;SDS011;11998;55.788;37.572;2023-06-04T00:33:27;3.37;;;2.07;;
23642;SDS011;11998;55.788;37.572;2023-06-04T00:34:27;2.70;;;2.10;;
23642;SDS011;11998;55.788;37.572;2023-06-04T00:35:28;4.83;;;2.17;;
23642;SDS011;11998;55.788;37.572;2023-06-04T00:36:28;3.37;;;2.33;;
23642;SDS011;11998;55.788;37.572;2023-06-04T00:37:29;3.13;;;2.10;;
23642;SDS011;11998;55.788;37.572;2023-06-04T00:38:30;5.10;;;2.20;;
23642;SDS011;11998;55.788;37.572;2023-06-04T00:39:31;5.77;;;2.20;;
23642;SDS011;11998;55.788;37.572;2023-06-04T00:40:32;2.83;;;2.23;;
23642;SDS011;11998;55.788;37.572;2023-06-04T00:41:33;6.00;;;2.37;;
23642;SDS011;11998;55.788;37.572;2023-06-04T00:42:33;5.97;;;2.67;;
23642;SDS011;11998;55.788;37.572;2023-06-04T00:43:34;5.37;;;2.03;;
23642;SDS011;11998;55.788;37.572;2023-06-04T00:44:35;4.13;;;2.90;;
23642;SDS011;11998;55.788;37.572;2023-06-04T00:45:36;6.03;;;2.67;;
23642;SDS011;11998;55.788;37.572;2023-06-04T00:46:37;3.93;;;2.67;;
23642;SDS011;11998;55.788;37.572;2023-06-04T00:47:38;5.87;;;2.53;;
23642;SDS011;11998;55.788;37.572;2023-06-04T00:48:38;4.27;;;2.60;;
23642;SDS011;11998;55.788;37.572;2023-06-04T00:49:42;5.10;;;2.30;;
23642;SDS011;11998;55.788;37.572;2023-06-04T00:50:43;5.30;;;2.73;;
23642;SDS011;11998;55.788;37.572;2023-06-04T00:51:43;7.97;;;2.97;;
23642;SDS011;11998;55.788;37.572;2023-06-04T00:52:44;5.47;;;2.97;;
23642;SDS011;11998;55.788;37.572;2023-06-04T00:53:45;7.00;;;3.10;;
23642;SDS011;11998;55.788;37.572;2023-06-04T00:54:45;5.77;;;2.90;;
23642;SDS011;11998;55.788;37.572;2023-06-04T00:55:46;7.37;;;2.80;;
23642;SDS011;11998;55.788;37.572;2023-06-04T00:56:47;4.53;;;2.50;;
23642;SDS011;11998;55.788;37.572;2023-06-04T00:57:48;4.77;;;2.13;;
23642;SDS011;11998;55.788;37.572;2023-06-04T00:58:48;4.90;;;2.40;;
23642;SDS011;11998;55.788;37.572;2023-06-04T00:59:49;5.03;;;2.50;;
23642;SDS011;11998;55.788;37.572;2023-06-04T01:00:51;7.10;;;2.33;;
23642;SDS011;11998;55.788;37.572;2023-06-04T01:03:04;4.00;;;2.43;;
23642;SDS011;11998;55.788;37.572;2023-06-04T01:04:32;4.90;;;2.43;;
23642;SDS011;11998;55.788;37.572;2023-06-04T01:05:37;4.00;;;2.57;;
23642;SDS011;11998;55.788;37.572;2023-06-04T01:06:44;6.10;;;2.70;;
23642;SDS011;11998;55.788;37.572;2023-06-04T01:07:48;8.07;;;2.87;;
23642;SDS011;11998;55.788;37.572;2023-06-04T01:08:50;4.90;;;2.60;;
23642;SDS011;11998;55.788;37.572;2023-06-04T01:09:54;5.77;;;2.70;;
23642;SDS011;11998;55.788;37.572;2023-06-04T01:10:55;3.93;;;2.77;;
23642;SDS011;11998;55.788;37.572;2023-06-04T01:11:56;4.33;;;2.73;;
23642;SDS011;11998;55.788;37.572;2023-06-04T01:13:02;2.53;;;1.83;;
23642;SDS011;11998;55.788;37.572;2023-06-04T01:14:03;5.10;;;2.20;;
23642;SDS011;11998;55.788;37.572;2023-06-04T01:15:05;7.43;;;2.57;;
23642;SDS011;11998;55.788;37.572;2023-06-04T01:16:06;9.40;;;2.63;;
23642;SDS011;11998;55.788;37.572;2023-06-04T01:17:12;7.50;;;3.03;;
23642;SDS011;11998;55.788;37.572;2023-06-04T01:18:19;5.27;;;2.67;;
23642;SDS011;11998;55.788;37.572;2023-06-04T01:19:47;6.07;;;2.60;;
23642;SDS011;11998;55.788;37.572;2023-06-04T01:21:06;6.03;;;2.80;;
23642;SDS011;11998;55.788;37.572;2023-06-04T01:22:10;7.00;;;2.87;;
23642;SDS011;11998;55.788;37.572;2023-06-04T01:23:37;5.37;;;2.50;;
23642;SDS011;11998;55.788;37.572;2023-06-04T01:24:48;6.33;;;2.63;;
23642;SDS011;11998;55.788;37.572;2023-06-04T01:25:56;4.30;;;2.30;;
23642;SDS011;11998;55.788;37.572;2023-06-04T01:26:57;8.00;;;2.80;;
23642;SDS011;11998;55.788;37.572;2023-06-04T01:27:58;2.47;;;1.83;;
23642;SDS011;11998;55.788;37.572;2023-06-04T01:29:00;4.63;;;2.40;;
23642;SDS011;11998;55.788;37.572;2023-06-04T01:30:02;3.70;;;2.00;;
23642;SDS011;11998;55.788;37.572;2023-06-04T01:31:04;4.07;;;2.40;;
23642;SDS011;11998;55.788;37.572;2023-06-04T01:32:07;4.33;;;2.00;;
23642;SDS011;11998;55.788;37.572;2023-06-04T01:33:09;5.23;;;2.07;;
23642;SDS011;11998;55.788;37.572;2023-06-04T01:34:11;2.20;;;1.80;;
23642;SDS011;11998;55.788;37.572;2023-06-04T01:35:11;4.83;;;1.97;;
23642;SDS011;11998;55.788;37.572;2023-06-04T01:36:12;5.83;;;1.97;;
23642;SDS011;11998;55.788;37.572;2023-06-04T01:37:13;3.40;;;2.00;;
23642;SDS011;11998;55.788;37.572;2023-06-04T01:38:13;2.47;;;2.13;;
23642;SDS011;11998;55.788;37.572;2023-06-04T01:39:14;3.17;;;2.20;;
23642;SDS011;11998;55.788;37.572;2023-06-04T01:40:15;2.60;;;2.00;;
23642;SDS011;11998;55.788;37.572;2023-06-04T01:41:15;4.00;;;2.13;;
23642;SDS011;11998;55.788;37.572;2023-06-04T01:42:16;3.47;;;1.97;;
23642;SDS011;11998;55.788;37.572;2023-06-04T01:43:16;2.57;;;1.90;;
23642;SDS011;11998;55.788;37.572;2023-06-04T01:44:17;5.47;;;1.93;;
23642;SDS011;11998;55.788;37.572;2023-06-04T01:45:18;4.40;;;2.03;;
23642;SDS011;11998;55.788;37.572;2023-06-04T01:46:18;2.40;;;2.20;;
23642;SDS011;11998;55.788;37.572;2023-06-04T01:47:19;3.07;;;1.93;;
23642;SDS011;11998;55.788;37.572;2023-06-04T01:48:19;2.43;;;1.70;;
23642;SDS011;11998;55.788;37.572;2023-06-04T01:49:21;3.33;;;1.73;;
23642;SDS011;11998;55.788;37.572;2023-06-04T01:50:21;2.70;;;2.13;;
23642;SDS011;11998;55.788;37.572;2023-06-04T01:51:22;2.70;;;1.90;;
23642;SDS011;11998;55.788;37.572;2023-06-04T01:52:22;5.37;;;2.10;;
23642;SDS011;11998;55.788;37.572;2023-06-04T01:53:23;4.80;;;1.80;;
23642;SDS011;11998;55.788;37.572;2023-06-04T01:54:24;2.67;;;1.90;;
23642;SDS011;11998;55.788;37.572;2023-06-04T01:55:25;2.80;;;1.77;;
23642;SDS011;11998;55.788;37.572;2023-06-04T01:56:26;2.20;;;1.90;;
23642;SDS011;11998;55.788;37.572;2023-06-04T01:57:27;3.23;;;1.70;;
23642;SDS011;11998;55.788;37.572;2023-06-04T01:58:27;3.10;;;1.97;;
23642;SDS011;11998;55.788;37.572;2023-06-04T01:59:29;4.87;;;2.20;;
23642;SDS011;11998;55.788;37.572;2023-06-04T02:00:32;2.60;;;1.83;;
23642;SDS011;11998;55.788;37.572;2023-06-04T02:01:32;2.60;;;1.90;;
23642;SDS011;11998;55.788;37.572;2023-06-04T02:02:34;3.10;;;2.13;;
23642;SDS011;11998;55.788;37.572;2023-06-04T02:03:36;2.03;;;1.83;;
23642;SDS011;11998;55.788;37.572;2023-06-04T02:04:37;4.10;;;2.00;;
23642;SDS011;11998;55.788;37.572;2023-06-04T02:05:37;3.47;;;2.13;;
23642;SDS011;11998;55.788;37.572;2023-06-04T02:06:38;2.53;;;2.10;;
23642;SDS011;11998;55.788;37.572;2023-06-04T02:07:43;3.53;;;2.00;;
23642;SDS011;11998;55.788;37.572;2023-06-04T02:08:45;2.27;;;2.00;;
23642;SDS011;11998;55.788;37.572;2023-06-04T02:09:46;2.33;;;2.13;;
23642;SDS011;11998;55.788;37.572;2023-06-04T02:10:47;3.93;;;1.87;;
23642;SDS011;11998;55.788;37.572;2023-06-04T02:11:48;1.70;;;1.60;;
23642;SDS011;11998;55.788;37.572;2023-06-04T02:13:01;3.30;;;1.57;;
23642;SDS011;11998;55.788;37.572;2023-06-04T02:14:06;2.77;;;1.67;;
23642;SDS011;11998;55.788;37.572;2023-06-04T02:15:11;2.00;;;1.70;;
23642;SDS011;11998;55.788;37.572;2023-06-04T02:16:11;2.53;;;1.97;;
23642;SDS011;11998;55.788;37.572;2023-06-04T02:17:12;2.57;;;1.37;;
23642;SDS011;11998;55.788;37.572;2023-06-04T02:18:19;3.13;;;1.70;;
23642;SDS011;11998;55.788;37.572;2023-06-04T02:19:24;2.83;;;2.07;;
23642;SDS011;11998;55.788;37.572;2023-06-04T02:20:28;3.53;;;1.67;;
23642;SDS011;11998;55.788;37.572;2023-06-04T02:21:29;3.00;;;1.97;;
23642;SDS011;11998;55.788;37.572;2023-06-04T02:22:29;2.37;;;2.00;;
23642;SDS011;11998;55.788;37.572;2023-06-04T02:23:30;1.80;;;1.70;;
23642;SDS011;11998;55.788;37.572;2023-06-04T02:24:30;3.33;;;1.70;;
23642;SDS011;11998;55.788;37.572;2023-06-04T02:25:31;4.60;;;1.90;;
23642;SDS011;11998;55.788;37.572;2023-06-04T02:26:31;2.27;;;1.90;;
23642;SDS011;11998;55.788;37.572;2023-06-04T02:27:32;1.70;;;1.60;;
23642;SDS011;11998;55.788;37.572;2023-06-04T02:28:33;4.10;;;1.60;;
23642;SDS011;11998;55.788;37.572;2023-06-04T02:29:33;2.33;;;1.80;;
23642;SDS011;11998;55.788;37.572;2023-06-04T02:30:34;4.27;;;2.07;;
23642;SDS011;11998;55.788;37.572;2023-06-04T02:31:34;2.00;;;1.80;;
23642;SDS011;11998;55.788;37.572;2023-06-04T02:32:35;2.30;;;2.10;;
23642;SDS011;11998;55.788;37.572;2023-06-04T02:33:36;2.60;;;1.67;;
23642;SDS011;11998;55.788;37.572;2023-06-04T02:34:36;4.73;;;2.20;;
23642;SDS011;11998;55.788;37.572;2023-06-04T02:35:37;3.70;;;2.00;;
23642;SDS011;11998;55.788;37.572;2023-06-04T02:36:38;3.27;;;2.07;;
23642;SDS011;11998;55.788;37.572;2023-06-04T02:37:38;2.53;;;1.90;;
23642;SDS011;11998;55.788;37.572;2023-06-04T02:38:39;2.60;;;1.90;;
23642;SDS011;11998;55.788;37.572;2023-06-04T02:39:39;3.57;;;2.33;;
23642;SDS011;11998;55.788;37.572;2023-06-04T02:40:41;4.43;;;2.47;;
23642;SDS011;11998;55.788;37.572;2023-06-04T02:41:42;4.77;;;2.50;;
23642;SDS011;11998;55.788;37.572;2023-06-04T02:42:42;7.60;;;2.47;;
23642;SDS011;11998;55.788;37.572;2023-06-04T02:43:43;3.93;;;2.70;;
23642;SDS011;11998;55.788;37.572;2023-06-04T02:44:45;4.13;;;2.30;;
23642;SDS011;11998;55.788;37.572;2023-06-04T02:45:45;5.07;;;2.47;;
23642;SDS011;11998;55.788;37.572;2023-06-04T02:46:46;3.97;;;1.80;;
23642;SDS011;11998;55.788;37.572;2023-06-04T02:47:47;2.87;;;2.13;;
23642;SDS011;11998;55.788;37.572;2023-06-04T02:48:47;3.70;;;2.37;;
23642;SDS011;11998;55.788;37.572;2023-06-04T02:49:48;5.90;;;2.40;;
23642;SDS011;11998;55.788;37.572;2023-06-04T02:50:49;5.33;;;2.57;;
23642;SDS011;11998;55.788;37.572;2023-06-04T02:51:49;4.30;;;2.20;;
23642;SDS011;11998;55.788;37.572;2023-06-04T02:52:50;5.27;;;2.27;;
23642;SDS011;11998;55.788;37.572;2023-06-04T02:53:50;4.27;;;2.10;;
23642;SDS011;11998;55.788;37.572;2023-06-04T02:54:52;5.53;;;2.10;;
23642;SDS011;11998;55.788;37.572;2023-06-04T02:55:52;4.10;;;2.37;;
23642;SDS011;11998;55.788;37.572;2023-06-04T02:56:53;3.90;;;1.97;;
23642;SDS011;11998;55.788;37.572;2023-06-04T02:57:53;3.50;;;2.20;;
23642;SDS011;11998;55.788;37.572;2023-06-04T02:58:54;3.97;;;1.77;;
23642;SDS011;11998;55.788;37.572;2023-06-04T02:59:56;2.47;;;2.20;;
23642;SDS011;11998;55.788;37.572;2023-06-04T03:00:56;4.07;;;2.03;;
23642;SDS011;11998;55.788;37.572;2023-06-04T03:01:57;4.83;;;1.90;;
23642;SDS011;11998;55.788;37.572;2023-06-04T03:02:57;3.53;;;2.00;;
23642;SDS011;11998;55.788;37.572;2023-06-04T03:04:01;5.67;;;2.00;;
23642;SDS011;11998;55.788;37.572;2023-06-04T03:05:11;4.50;;;2.13;;
23642;SDS011;11998;55.788;37.572;2023-06-04T03:06:13;3.30;;;2.20;;
23642;SDS011;11998;55.788;37.572;2023-06-04T03:07:14;3.93;;;2.30;;
23642;SDS011;11998;55.788;37.572;2023-06-04T03:08:15;2.83;;;2.00;;
23642;SDS011;11998;55.788;37.572;2023-06-04T03:09:15;4.13;;;1.97;;
23642;SDS011;11998;55.788;37.572;2023-06-04T03:10:16;3.70;;;1.90;;
23642;SDS011;11998;55.788;37.572;2023-06-04T03:11:19;2.87;;;2.20;;
23642;SDS011;11998;55.788;37.572;2023-06-04T03:12:21;4.00;;;2.23;;
23642;SDS011;11998;55.788;37.572;2023-06-04T03:13:21;4.70;;;2.70;;
23642;SDS011;11998;55.788;37.572;2023-06-04T03:14:22;4.73;;;3.17;;
23642;SDS011;11998;55.788;37.572;2023-06-04T03:15:23;5.57;;;2.13;;
23642;SDS011;11998;55.788;37.572;2023-06-04T03:16:24;2.13;;;1.93;;
23642;SDS011;11998;55.788;37.572;2023-06-04T03:17:25;5.03;;;2.00;;
23642;SDS011;11998;55.788;37.572;2023-06-04T03:18:26;4.67;;;1.90;;
23642;SDS011;11998;55.788;37.572;2023-06-04T03:19:27;3.20;;;2.00;;
23642;SDS011;11998;55.788;37.572;2023-06-04T03:20:28;4.23;;;2.43;;
23642;SDS011;11998;55.788;37.572;2023-06-04T03:21:28;4.47;;;1.90;;
23642;SDS011;11998;55.788;37.572;2023-06-04T03:22:29;4.03;;;1.80;;
23642;SDS011;11998;55.788;37.572;2023-06-04T03:23:30;1.33;;;1.23;;
23642;SDS011;11998;55.788;37.572;2023-06-04T03:24:35;3.17;;;1.57;;
23642;SDS011;11998;55.788;37.572;2023-06-04T03:25:36;1.47;;;1.37;;
23642;SDS011;11998;55.788;37.572;2023-06-04T03:26:37;2.00;;;1.43;;
23642;SDS011;11998;55.788;37.572;2023-06-04T03:27:37;3.63;;;1.60;;
23642;SDS011;11998;55.788;37.572;2023-06-04T03:28:38;2.57;;;1.23;;
23642;SDS011;11998;55.788;37.572;2023-06-04T03:29:38;5.03;;;1.60;;
23642;SDS011;11998;55.788;37.572;2023-06-04T03:30:40;2.27;;;1.30;;
23642;SDS011;11998;55.788;37.572;2023-06-04T03:31:43;1.70;;;1.40;;
23642;SDS011;11998;55.788;37.572;2023-06-04T03:32:45;6.03;;;1.50;;
23642;SDS011;11998;55.788;37.572;2023-06-04T03:33:45;2.47;;;1.50;;
23642;SDS011;11998;55.788;37.572;2023-06-04T03:34:46;1.40;;;1.30;;
23642;SDS011;11998;55.788;37.572;2023-06-04T03:35:46;4.60;;;1.37;;
23642;SDS011;11998;55.788;37.572;2023-06-04T03:36:48;1.43;;;1.33;;
23642;SDS011;11998;55.788;37.572;2023-06-04T03:37:48;3.10;;;1.57;;
23642;SDS011;11998;55.788;37.572;2023-06-04T03:38:49;2.03;;;1.50;;
23642;SDS011;11998;55.788;37.572;2023-06-04T03:39:49;4.13;;;1.60;;
23642;SDS011;11998;55.788;37.572;2023-06-04T03:40:50;3.00;;;1.47;;
23642;SDS011;11998;55.788;37.572;2023-06-04T03:41:53;2.87;;;1.40;;
23642;SDS011;11998;55.788;37.572;2023-06-04T03:42:53;4.97;;;1.60;;
23642;SDS011;11998;55.788;37.572;2023-06-04T03:43:54;4.20;;;1.60;;
23642;SDS011;11998;55.788;37.572;2023-06-04T03:44:54;1.70;;;1.30;;
23642;SDS011;11998;55.788;37.572;2023-06-04T03:45:55;5.03;;;1.50;;
23642;SDS011;11998;55.788;37.572;2023-06-04T03:46:55;3.90;;;1.67;;
23642;SDS011;11998;55.788;37.572;2023-06-04T03:47:56;2.43;;;1.37;;
23642;SDS011;11998;55.788;37.572;2023-06-04T03:48:58;2.63;;;1.70;;
23642;SDS011;11998;55.788;37.572;2023-06-04T03:49:58;1.57;;;1.43;;
23642;SDS011;11998;55.788;37.572;2023-06-04T03:50:59;2.90;;;1.40;;
23642;SDS011;11998;55.788;37.572;2023-06-04T03:51:59;1.27;;;1.10;;
23642;SDS011;11998;55.788;37.572;2023-06-04T03:53:00;3.37;;;1.33;;
23642;SDS011;11998;55.788;37.572;2023-06-04T03:54:01;2.03;;;1.73;;
23642;SDS011;11998;55.788;37.572;2023-06-04T03:55:02;2.37;;;1.83;;
23642;SDS011;11998;55.788;37.572;2023-06-04T03:56:03;2.80;;;1.40;;
23642;SDS011;11998;55.788;37.572;2023-06-04T03:57:04;1.57;;;1.40;;
23642;SDS011;11998;55.788;37.572;2023-06-04T03:58:05;4.40;;;1.77;;
23642;SDS011;11998;55.788;37.572;2023-06-04T03:59:06;3.70;;;1.60;;
23642;SDS011;11998;55.788;37.572;2023-06-04T04:00:07;2.20;;;1.57;;
23642;SDS011;11998;55.788;37.572;2023-06-04T04:01:12;3.40;;;1.80;;
23642;SDS011;11998;55.788;37.572;2023-06-04T04:02:12;3.23;;;1.40;;
23642;SDS011;11998;55.788;37.572;2023-06-04T04:03:13;2.13;;;1.47;;
23642;SDS011;11998;55.788;37.572;2023-06-04T04:04:14;2.23;;;1.40;;
23642;SDS011;11998;55.788;37.572;2023-06-04T04:05:14;2.47;;;1.47;;
23642;SDS011;11998;55.788;37.572;2023-06-04T04:06:15;2.80;;;1.43;;
23642;SDS011;11998;55.788;37.572;2023-06-04T04:07:16;3.42;;;1.52;;
23642;SDS011;11998;55.788;37.572;2023-06-04T04:08:17;2.25;;;1.50;;
23642;SDS011;11998;55.788;37.572;2023-06-04T04:09:18;2.97;;;1.38;;
23642;SDS011;11998;55.788;37.572;2023-06-04T04:10:18;3.00;;;1.13;;
23642;SDS011;11998;55.788;37.572;2023-06-04T04:11:19;3.45;;;1.90;;
23642;SDS011;11998;55.788;37.572;2023-06-04T04:12:19;3.25;;;1.70;;
23642;SDS011;11998;55.788;37.572;2023-06-04T04:13:20;4.25;;;1.50;;
23642;SDS011;11998;55.788;37.572;2023-06-04T04:14:21;4.10;;;1.80;;
23642;SDS011;11998;55.788;37.572;2023-06-04T04:15:21;2.05;;;1.70;;
23642;SDS011;11998;55.788;37.572;2023-06-04T04:16:22;5.00;;;2.00;;
23642;SDS011;11998;55.788;37.572;2023-06-04T04:17:23;3.35;;;1.88;;
23642;SDS011;11998;55.788;37.572;2023-06-04T04:18:23;3.30;;;1.75;;
23642;SDS011;11998;55.788;37.572;2023-06-04T04:19:24;2.90;;;1.70;;
23642;SDS011;11998;55.788;37.572;2023-06-04T04:20:26;2.45;;;1.80;;
23642;SDS011;11998;55.788;37.572;2023-06-04T04:21:26;7.00;;;2.33;;
23642;SDS011;11998;55.788;37.572;2023-06-04T04:22:27;5.32;;;2.28;;
23642;SDS011;11998;55.788;37.572;2023-06-04T04:23:28;4.38;;;2.20;;
23642;SDS011;11998;55.788;37.572;2023-06-04T04:24:29;2.63;;;1.98;;
23642;SDS011;11998;55.788;37.572;2023-06-04T04:25:29;4.07;;;1.80;;
23642;SDS011;11998;55.788;37.572;2023-06-04T04:26:32;2.72;;;1.60;;
23642;SDS011;11998;55.788;37.572;2023-06-04T04:27:34;5.40;;;2.20;;
23642;SDS011;11998;55.788;37.572;2023-06-04T04:28:38;3.33;;;2.53;;
23642;SDS011;11998;55.788;37.572;2023-06-04T04:29:39;5.03;;;2.97;;
23642;SDS011;11998;55.788;37.572;2023-06-04T04:30:42;2.72;;;1.88;;
23642;SDS011;11998;55.788;37.572;2023-06-04T04:31:44;4.65;;;2.10;;
23642;SDS011;11998;55.788;37.572;2023-06-04T04:32:48;3.80;;;2.03;;
23642;SDS011;11998;55.788;37.572;2023-06-04T04:33:48;3.75;;;2.05;;
23642;SDS011;11998;55.788;37.572;2023-06-04T04:34:51;5.35;;;1.90;;
23642;SDS011;11998;55.788;37.572;2023-06-04T04:35:53;4.07;;;1.75;;
23642;SDS011;11998;55.788;37.572;2023-06-04T04:36:55;2.47;;;1.52;;
23642;SDS011;11998;55.788;37.572;2023-06-04T04:37:56;3.90;;;1.98;;
23642;SDS011;11998;55.788;37.572;2023-06-04T04:38:57;5.95;;;2.20;;
23642;SDS011;11998;55.788;37.572;2023-06-04T04:39:58;4.32;;;2.05;;
23642;SDS011;11998;55.788;37.572;2023-06-04T04:40:59;4.97;;;1.88;;
23642;SDS011;11998;55.788;37.572;2023-06-04T04:42:00;3.60;;;1.77;;
23642;SDS011;11998;55.788;37.572;2023-06-04T04:43:01;3.33;;;1.80;;
23642;SDS011;11998;55.788;37.572;2023-06-04T04:44:05;3.47;;;1.92;;
23642;SDS011;11998;55.788;37.572;2023-06-04T04:45:06;3.25;;;2.22;;
23642;SDS011;11998;55.788;37.572;2023-06-04T04:46:07;3.63;;;2.00;;
23642;SDS011;11998;55.788;37.572;2023-06-04T04:47:08;4.10;;;1.70;;
23642;SDS011;11998;55.788;37.572;2023-06-04T04:48:08;2.75;;;1.55;;
23642;SDS011;11998;55.788;37.572;2023-06-04T04:49:09;3.35;;;1.73;;
23642;SDS011;11998;55.788;37.572;2023-06-04T04:50:10;4.25;;;1.58;;
23642;SDS011;11998;55.788;37.572;2023-06-04T04:51:10;2.97;;;1.48;;
23642;SDS011;11998;55.788;37.572;2023-06-04T04:52:11;3.13;;;1.52;;
23642;SDS011;11998;55.788;37.572;2023-06-04T04:53:11;1.90;;;1.63;;
23642;SDS011;11998;55.788;37.572;2023-06-04T04:54:12;2.58;;;1.45;;
23642;SDS011;11998;55.788;37.572;2023-06-04T04:55:13;3.13;;;1.40;;
23642;SDS011;11998;55.788;37.572;2023-06-04T04:56:13;4.18;;;2.10;;
23642;SDS011;11998;55.788;37.572;2023-06-04T04:57:14;3.10;;;1.65;;
23642;SDS011;11998;55.788;37.572;2023-06-04T04:58:15;2.75;;;1.75;;
23642;SDS011;11998;55.788;37.572;2023-06-04T04:59:16;2.03;;;1.83;;
23642;SDS011;11998;55.788;37.572;2023-06-04T05:00:16;3.22;;;1.70;;
23642;SDS011;11998;55.788;37.572;2023-06-04T05:01:17;2.58;;;1.80;;
23642;SDS011;11998;55.788;37.572;2023-06-04T05:02:18;2.70;;;1.65;;
23642;SDS011;11998;55.788;37.572;2023-06-04T05:03:18;3.10;;;1.60;;
23642;SDS011;11998;55.788;37.572;2023-06-04T05:04:19;2.17;;;1.60;;
23642;SDS011;11998;55.788;37.572;2023-06-04T05:05:19;2.42;;;1.40;;
23642;SDS011;11998;55.788;37.572;2023-06-04T05:06:20;2.10;;;1.48;;
23642;SDS011;11998;55.788;37.572;2023-06-04T05:07:21;2.00;;;1.38;;
23642;SDS011;11998;55.788;37.572;2023-06-04T05:08:23;4.63;;;1.27;;
23642;SDS011;11998;55.788;37.572;2023-06-04T05:09:24;2.25;;;1.10;;
23642;SDS011;11998;55.788;37.572;2023-06-04T05:10:24;1.60;;;1.42;;
23642;SDS011;11998;55.788;37.572;2023-06-04T05:11:25;2.38;;;1.10;;
23642;SDS011;11998;55.788;37.572;2023-06-04T05:12:25;1.10;;;1.10;;
23642;SDS011;11998;55.788;37.572;2023-06-04T05:13:29;1.00;;;1.00;;
23642;SDS011;11998;55.788;37.572;2023-06-04T05:14:29;3.30;;;1.10;;
23642;SDS011;11998;55.788;37.572;2023-06-04T05:15:30;2.08;;;1.08;;
23642;SDS011;11998;55.788;37.572;2023-06-04T05:16:30;2.97;;;1.40;;
23642;SDS011;11998;55.788;37.572;2023-06-04T05:17:31;2.83;;;1.20;;
23642;SDS011;11998;55.788;37.572;2023-06-04T05:18:32;3.85;;;1.27;;
23642;SDS011;11998;55.788;37.572;2023-06-04T05:19:41;2.35;;;1.40;;
23642;SDS011;11998;55.788;37.572;2023-06-04T05:20:42;1.30;;;1.20;;
23642;SDS011;11998;55.788;37.572;2023-06-04T05:21:43;1.48;;;1.30;;
23642;SDS011;11998;55.788;37.572;2023-06-04T05:22:44;1.50;;;0.82;;
23642;SDS011;11998;55.788;37.572;2023-06-04T05:23:45;1.80;;;1.13;;
23642;SDS011;11998;55.788;37.572;2023-06-04T05:24:48;2.03;;;0.90;;
23642;SDS011;11998;55.788;37.572;2023-06-04T05:25:48;2.47;;;1.30;;
23642;SDS011;11998;55.788;37.572;2023-06-04T05:26:49;2.08;;;1.10;;
23642;SDS011;11998;55.788;37.572;2023-06-04T05:27:49;3.17;;;1.27;;
23642;SDS011;11998;55.788;37.572;2023-06-04T05:28:50;3.25;;;1.17;;
23642;SDS011;11998;55.788;37.572;2023-06-04T05:29:51;3.25;;;1.00;;
23642;SDS011;11998;55.788;37.572;2023-06-04T05:30:51;2.90;;;0.90;;
23642;SDS011;11998;55.788;37.572;2023-06-04T05:31:53;1.27;;;1.08;;
23642;SDS011;11998;55.788;37.572;2023-06-04T05:32:54;3.35;;;1.05;;
23642;SDS011;11998;55.788;37.572;2023-06-04T05:33:54;3.97;;;1.27;;
23642;SDS011;11998;55.788;37.572;2023-06-04T05:34:55;1.58;;;1.00;;
23642;SDS011;11998;55.788;37.572;2023-06-04T05:35:58;1.42;;;1.00;;
23642;SDS011;11998;55.788;37.572;2023-06-04T05:36:59;3.20;;;1.00;;
23642;SDS011;11998;55.788;37.572;2023-06-04T05:37:59;1.20;;;1.13;;
23642;SDS011;11998;55.788;37.572;2023-06-04T05:39:00;1.35;;;1.05;;
23642;SDS011;11998;55.788;37.572;2023-06-04T05:40:01;1.33;;;1.15;;
23642;SDS011;11998;55.788;37.572;2023-06-04T05:41:05;1.42;;;0.90;;
23642;SDS011;11998;55.788;37.572;2023-06-04T05:42:06;4.85;;;1.20;;
23642;SDS011;11998;55.788;37.572;2023-06-04T05:43:07;1.15;;;0.98;;
23642;SDS011;11998;55.788;37.572;2023-06-04T05:44:07;2.28;;;1.00;;
23642;SDS011;11998;55.788;37.572;2023-06-04T05:45:08;4.13;;;0.95;;
23642;SDS011;11998;55.788;37.572;2023-06-04T05:46:09;5.25;;;1.00;;
23642;SDS011;11998;55.788;37.572;2023-06-04T05:47:11;2.00;;;1.00;;
23642;SDS011;11998;55.788;37.572;2023-06-04T05:48:11;2.10;;;1.05;;
23642;SDS011;11998;55.788;37.572;2023-06-04T05:49:12;1.80;;;1.00;;
23642;SDS011;11998;55.788;37.572;2023-06-04T05:50:13;2.72;;;0.75;;
23642;SDS011;11998;55.788;37.572;2023-06-04T05:51:13;3.38;;;0.82;;
23642;SDS011;11998;55.788;37.572;2023-06-04T05:52:14;1.63;;;1.02;;
23642;SDS011;11998;55.788;37.572;2023-06-04T05:53:14;3.30;;;1.10;;
23642;SDS011;11998;55.788;37.572;2023-06-04T05:54:16;1.23;;;1.10;;
23642;SDS011;11998;55.788;37.572;2023-06-04T05:55:16;2.05;;;1.10;;
23642;SDS011;11998;55.788;37.572;2023-06-04T05:56:17;0.98;;;0.98;;
23642;SDS011;11998;55.788;37.572;2023-06-04T05:57:17;3.42;;;0.90;;
23642;SDS011;11998;55.788;37.572;2023-06-04T05:58:18;4.43;;;1.20;;
23642;SDS011;11998;55.788;37.572;2023-06-04T05:59:19;0.75;;;0.70;;
23642;SDS011;11998;55.788;37.572;2023-06-04T06:00:19;0.80;;;0.80;;
23642;SDS011;11998;55.788;37.572;2023-06-04T06:01:20;1.63;;;0.95;;
23642;SDS011;11998;55.788;37.572;2023-06-04T06:02:21;1.38;;;0.80;;
23642;SDS011;11998;55.788;37.572;2023-06-04T06:03:22;1.92;;;1.20;;
23642;SDS011;11998;55.788;37.572;2023-06-04T06:04:23;1.20;;;0.77;;
23642;SDS011;11998;55.788;37.572;2023-06-04T06:05:23;0.75;;;0.63;;